Time;durP1;ratioP1;P1;durP2;ratioP2;P2;SDS_P1;SDS_P2;PMS_P1;PMS_P2;Temp;Humidity;BMP_temperature;BMP_pressure;BME280_temperature;BME280_humidity;BME280_pressure;Samples;Min_cycle;Max_cycle;Signal;HPM_P1;HPM_P2
2021/07/27 00:02:00;;;;;;;0.20;0.20;;;;;;;;;;4808813;29;20039;-90
2021/07/27 00:04:26;;;;;;;0.10;0.10;;;;;;;;;;4808649;29;20046;-89
2021/07/27 00:06:52;;;;;;;0.20;0.20;;;;;;;;;;4808672;29;20050;-90
2021/07/27 00:09:18;;;;;;;0.10;0.10;;;;;;;;;;4823674;29;20566;-90
2021/07/27 00:11:44;;;;;;;0.20;0.20;;;;;;;;;;4793398;29;20487;-90
2021/07/27 00:14:10;;;;;;;0.20;0.20;;;;;;;;;;4808285;29;20129;-90
2021/07/27 00:16:36;;;;;;;0.10;0.10;;;;;;;;;;4823415;29;20042;-90
2021/07/27 00:19:02;;;;;;;0.13;0.13;;;;;;;;;;4793308;29;20094;-90
2021/07/27 00:21:28;;;;;;;0.10;0.10;;;;;;;;;;4807984;29;20088;-91
2021/07/27 00:23:54;;;;;;;0.10;0.10;;;;;;;;;;4823679;29;20077;-91
2021/07/27 00:26:24;;;;;;;0.20;0.20;;;;;;;;;;4808543;29;20483;-91
2021/07/27 00:28:50;;;;;;;0.10;0.10;;;;;;;;;;4792433;29;20495;-91
2021/07/27 00:31:20;;;;;;;0.20;0.20;;;;;;;;;;4808149;29;20411;-90
2021/07/27 00:33:46;;;;;;;0.10;0.10;;;;;;;;;;4808011;29;20039;-90
2021/07/27 00:36:12;;;;;;;0.10;0.10;;;;;;;;;;4808157;29;20491;-91
2021/07/27 00:38:38;;;;;;;0.10;0.10;;;;;;;;;;4807998;29;20043;-90
2021/07/27 00:41:04;;;;;;;0.10;0.10;;;;;;;;;;4808117;29;20404;-90
2021/07/27 00:43:30;;;;;;;0.17;0.17;;;;;;;;;;4808095;29;20143;-91
2021/07/27 00:45:57;;;;;;;0.10;0.10;;;;;;;;;;4823530;29;20104;-88
2021/07/27 00:48:23;;;;;;;0.10;0.10;;;;;;;;;;4808156;29;20065;-90
2021/07/27 00:50:50;;;;;;;0.10;0.10;;;;;;;;;;4807995;29;20046;-91
2021/07/27 00:53:16;;;;;;;0.10;0.10;;;;;;;;;;4807395;29;20085;-91
2021/07/27 00:55:42;;;;;;;0.88;0.47;;;;;;;;;;4807949;29;20058;-91
2021/07/27 00:58:08;;;;;;;0.17;0.17;;;;;;;;;;4807848;29;20453;-90
2021/07/27 01:00:35;;;;;;;0.30;0.30;;;;;;;;;;4807875;29;20126;-90
2021/07/27 01:03:01;;;;;;;0.10;0.10;;;;;;;;;;4807742;29;20042;-91
2021/07/27 01:05:28;;;;;;;0.10;0.10;;;;;;;;;;4823089;29;20073;-91
2021/07/27 01:07:54;;;;;;;0.20;0.20;;;;;;;;;;4807333;29;20054;-91
2021/07/27 01:10:20;;;;;;;0.30;0.30;;;;;;;;;;4823095;29;20130;-91
2021/07/27 01:12:47;;;;;;;0.20;0.20;;;;;;;;;;4822805;29;20506;-91
2021/07/27 01:15:13;;;;;;;0.10;0.10;;;;;;;;;;4822885;29;20042;-90
2021/07/27 01:17:39;;;;;;;0.20;0.20;;;;;;;;;;4807631;29;20423;-90
2021/07/27 01:39:25;;;;;;;0.20;0.20;;;;;;;;;;4822898;29;20038;-90
2021/07/27 01:44:49;;;;;;;0.20;0.20;;;;;;;;;;4796516;29;20059;-90
2021/07/27 01:47:19;;;;;;;0.20;0.20;;;;;;;;;;4811126;29;20149;-90
2021/07/27 01:49:45;;;;;;;0.43;0.22;;;;;;;;;;4825973;29;20043;-91
2021/07/27 01:52:14;;;;;;;0.50;0.50;;;;;;;;;;4810848;29;20066;-90
2021/07/27 01:54:54;;;;;;;0.17;0.17;;;;;;;;;;4810886;29;20050;-90
2021/07/27 01:57:20;;;;;;;0.10;0.10;;;;;;;;;;4810917;29;20046;-90
2021/07/27 01:59:54;;;;;;;0.43;0.40;;;;;;;;;;4810746;29;20063;-90
2021/07/27 02:02:20;;;;;;;0.20;0.20;;;;;;;;;;4810543;29;20034;-90
2021/07/27 02:04:46;;;;;;;0.10;0.10;;;;;;;;;;4811019;29;20440;-89
2021/07/27 02:07:12;;;;;;;0.10;0.10;;;;;;;;;;4810225;29;20415;-89
2021/07/27 02:09:41;;;;;;;0.20;0.20;;;;;;;;;;4810454;29;20107;-89
2021/07/27 02:12:16;;;;;;;0.43;0.43;;;;;;;;;;4810356;29;20042;-90
2021/07/27 02:17:26;;;;;;;0.90;0.47;;;;;;;;;;4825291;29;20095;-90
2021/07/27 02:19:52;;;;;;;0.10;0.10;;;;;;;;;;4809892;29;20145;-89
2021/07/27 02:22:18;;;;;;;0.10;0.10;;;;;;;;;;4810361;29;20102;-89
2021/07/27 02:24:48;;;;;;;0.20;0.20;;;;;;;;;;4825121;29;20042;-90
2021/07/27 02:27:15;;;;;;;0.20;0.20;;;;;;;;;;4810092;29;20046;-90
2021/07/27 02:29:41;;;;;;;0.20;0.20;;;;;;;;;;4810178;29;20049;-89
2021/07/27 02:32:07;;;;;;;0.20;0.20;;;;;;;;;;4810287;29;20098;-90
2021/07/27 02:34:33;;;;;;;0.20;0.20;;;;;;;;;;4810135;29;20054;-90
2021/07/27 02:37:00;;;;;;;0.17;0.17;;;;;;;;;;4810440;29;20050;-90
2021/07/27 02:39:26;;;;;;;0.30;0.30;;;;;;;;;;4810071;29;20047;-90
2021/07/27 02:41:52;;;;;;;0.20;0.20;;;;;;;;;;4810083;29;20070;-91
2021/07/27 02:44:18;;;;;;;0.10;0.10;;;;;;;;;;4810112;29;20058;-90
2021/07/27 02:46:44;;;;;;;0.10;0.10;;;;;;;;;;4795207;29;20057;-90
2021/07/27 02:49:10;;;;;;;0.10;0.10;;;;;;;;;;4810391;29;20042;-91
2021/07/27 02:51:36;;;;;;;0.10;0.10;;;;;;;;;;4824685;29;20479;-91
2021/07/27 02:54:04;;;;;;;0.20;0.20;;;;;;;;;;4825254;29;20057;-91
2021/07/27 02:56:30;;;;;;;0.10;0.10;;;;;;;;;;4810046;29;20039;-91
2021/07/27 02:58:56;;;;;;;0.20;0.20;;;;;;;;;;4795467;29;20054;-92
2021/07/27 03:01:22;;;;;;;0.10;0.10;;;;;;;;;;4810017;29;20042;-92
2021/07/27 03:03:48;;;;;;;0.35;0.35;;;;;;;;;;4809863;29;20077;-90
2021/07/27 03:06:16;;;;;;;0.30;0.30;;;;;;;;;;4809754;29;20054;-90
2021/07/27 03:11:14;;;;;;;0.13;0.13;;;;;;;;;;4825007;29;20073;-91
2021/07/27 03:13:40;;;;;;;0.10;0.10;;;;;;;;;;4825009;29;20160;-92
2021/07/27 03:16:06;;;;;;;0.10;0.10;;;;;;;;;;4809859;29;20039;-90
2021/07/27 03:18:33;;;;;;;0.30;0.30;;;;;;;;;;4809929;29;20046;-91
2021/07/27 03:20:59;;;;;;;0.10;0.10;;;;;;;;;;4795007;29;20153;-91
2021/07/27 03:23:25;;;;;;;0.20;0.20;;;;;;;;;;4794644;29;20457;-91
2021/07/27 03:25:51;;;;;;;0.47;0.20;;;;;;;;;;4825603;29;20070;-91
2021/07/27 03:28:17;;;;;;;0.10;0.10;;;;;;;;;;4794770;29;20110;-92
2021/07/27 03:30:44;;;;;;;0.10;0.10;;;;;;;;;;4824792;29;20053;-91
2021/07/27 03:33:10;;;;;;;0.10;0.10;;;;;;;;;;4824734;29;20420;-92
2021/07/27 03:35:36;;;;;;;0.10;0.10;;;;;;;;;;4809565;29;20038;-92
2021/07/27 03:38:04;;;;;;;0.10;0.10;;;;;;;;;;4824663;29;20049;-92
2021/07/27 03:40:31;;;;;;;0.32;0.32;;;;;;;;;;4809514;29;20095;-91
2021/07/27 03:42:57;;;;;;;0.10;0.10;;;;;;;;;;4809390;29;20166;-91
2021/07/27 03:45:23;;;;;;;0.45;0.45;;;;;;;;;;4809379;29;20042;-91
2021/07/27 03:51:07;;;;;;;0.73;0.73;;;;;;;;;;4824662;29;20121;-91
2021/07/27 03:53:33;;;;;;;0.30;0.30;;;;;;;;;;4808714;29;20081;-91
2021/07/27 03:56:03;;;;;;;0.13;0.13;;;;;;;;;;4809499;29;20415;-90
2021/07/27 03:58:31;;;;;;;0.30;0.30;;;;;;;;;;4808873;29;20081;-90
2021/07/27 04:00:57;;;;;;;0.20;0.20;;;;;;;;;;4823826;29;20518;-90
2021/07/27 04:03:23;;;;;;;0.10;0.10;;;;;;;;;;4823309;29;20503;-91
2021/07/27 04:05:49;;;;;;;0.10;0.10;;;;;;;;;;4808608;29;20447;-91
2021/07/27 04:08:16;;;;;;;0.10;0.10;;;;;;;;;;4808498;29;20057;-90
2021/07/27 04:10:42;;;;;;;0.10;0.10;;;;;;;;;;4823764;29;20067;-91
2021/07/27 04:13:10;;;;;;;0.17;0.17;;;;;;;;;;4793567;29;20042;-90
2021/07/27 04:15:36;;;;;;;0.10;0.10;;;;;;;;;;4808554;29;20047;-90
2021/07/27 04:18:02;;;;;;;0.20;0.20;;;;;;;;;;4824749;29;20432;-91
2021/07/27 04:20:28;;;;;;;0.10;0.10;;;;;;;;;;4793968;29;20420;-91
2021/07/27 04:22:54;;;;;;;0.30;0.30;;;;;;;;;;4823902;29;20397;-91
2021/07/27 04:25:20;;;;;;;0.20;0.20;;;;;;;;;;4808430;29;20070;-90
2021/07/27 04:27:47;;;;;;;0.10;0.10;;;;;;;;;;4823352;29;20357;-90
2021/07/27 04:30:18;;;;;;;0.10;0.10;;;;;;;;;;4809089;29;20048;-91
2021/07/27 04:32:44;;;;;;;0.20;0.20;;;;;;;;;;4808442;29;20046;-91
2021/07/27 04:35:10;;;;;;;0.10;0.10;;;;;;;;;;4808129;29;20053;-90
2021/07/27 04:37:36;;;;;;;0.20;0.20;;;;;;;;;;4807963;29;20050;-90
2021/07/27 04:40:02;;;;;;;0.10;0.10;;;;;;;;;;4808163;29;20046;-90
2021/07/27 04:42:28;;;;;;;0.10;0.10;;;;;;;;;;4823287;29;20043;-91
2021/07/27 04:44:54;;;;;;;0.10;0.10;;;;;;;;;;4823391;29;20073;-90
2021/07/27 04:47:22;;;;;;;0.73;0.73;;;;;;;;;;4807717;29;20121;-89
2021/07/27 04:49:48;;;;;;;0.20;0.20;;;;;;;;;;4807905;29;20069;-90
2021/07/27 04:52:20;;;;;;;0.10;0.10;;;;;;;;;;4807904;29;20058;-91
2021/07/27 04:54:52;;;;;;;0.10;0.10;;;;;;;;;;4807930;29;20046;-90
2021/07/27 04:57:24;;;;;;;0.10;0.10;;;;;;;;;;4808541;29;20061;-90
2021/07/27 04:59:50;;;;;;;0.20;0.20;;;;;;;;;;4807752;29;20111;-90
2021/07/27 05:02:17;;;;;;;0.10;0.10;;;;;;;;;;4807982;29;20039;-89
2021/07/27 05:04:43;;;;;;;2.30;0.20;;;;;;;;;;4822920;29;20559;-91
2021/07/27 05:07:10;;;;;;;0.10;0.10;;;;;;;;;;4808034;29;20050;-91
2021/07/27 05:09:36;;;;;;;0.20;0.20;;;;;;;;;;4792672;29;20052;-91
2021/07/27 05:12:02;;;;;;;0.10;0.10;;;;;;;;;;4823015;29;20050;-91
2021/07/27 05:14:29;;;;;;;0.10;0.10;;;;;;;;;;4807585;29;20042;-91
2021/07/27 05:16:55;;;;;;;0.10;0.10;;;;;;;;;;4822901;29;20057;-90
2021/07/27 05:19:22;;;;;;;0.20;0.20;;;;;;;;;;4792501;29;20411;-90
2021/07/27 05:21:50;;;;;;;0.30;0.30;;;;;;;;;;4823070;29;20063;-91
2021/07/27 05:24:16;;;;;;;0.10;0.10;;;;;;;;;;4822801;29;20047;-91
2021/07/27 05:26:42;;;;;;;0.10;0.10;;;;;;;;;;4792617;29;20056;-90
2021/07/27 05:29:08;;;;;;;0.10;0.10;;;;;;;;;;4807835;29;20130;-91
2021/07/27 05:31:34;;;;;;;0.20;0.20;;;;;;;;;;4792902;29;20125;-91
2021/07/27 05:34:00;;;;;;;0.20;0.20;;;;;;;;;;4822757;29;20487;-91
2021/07/27 05:36:26;;;;;;;0.15;0.15;;;;;;;;;;4807844;29;20407;-90
2021/07/27 05:38:52;;;;;;;0.20;0.20;;;;;;;;;;4822267;29;20049;-89
2021/07/27 05:41:18;;;;;;;0.75;0.75;;;;;;;;;;4806867;29;20404;-89
2021/07/27 05:43:44;;;;;;;0.20;0.20;;;;;;;;;;4806901;29;20080;-89
2021/07/27 05:46:10;;;;;;;0.20;0.20;;;;;;;;;;4807071;29;20058;-89
2021/07/27 05:48:36;;;;;;;0.10;0.10;;;;;;;;;;4806758;29;20049;-89
2021/07/27 05:51:03;;;;;;;0.20;0.20;;;;;;;;;;4792114;29;20052;-89
2021/07/27 05:53:30;;;;;;;0.10;0.10;;;;;;;;;;4806635;29;20054;-89
2021/07/27 05:55:58;;;;;;;0.17;0.17;;;;;;;;;;4822007;29;20054;-89
2021/07/27 05:58:25;;;;;;;0.10;0.10;;;;;;;;;;4807024;29;20154;-89
2021/07/27 06:00:52;;;;;;;0.30;0.30;;;;;;;;;;4806898;29;20046;-90
2021/07/27 06:03:18;;;;;;;0.30;0.30;;;;;;;;;;4806921;29;20054;-89
2021/07/27 06:05:44;;;;;;;0.10;0.10;;;;;;;;;;4806668;29;20054;-88
2021/07/27 06:08:10;;;;;;;0.10;0.10;;;;;;;;;;4806664;29;20414;-88
2021/07/27 06:10:36;;;;;;;0.20;0.20;;;;;;;;;;4821592;29;20035;-89
2021/07/27 06:13:02;;;;;;;0.30;0.30;;;;;;;;;;4806676;29;20051;-89
2021/07/27 06:15:31;;;;;;;0.20;0.20;;;;;;;;;;4821864;29;20054;-89
2021/07/27 06:17:57;;;;;;;0.40;0.40;;;;;;;;;;4791659;29;20137;-90
2021/07/27 06:20:23;;;;;;;0.20;0.20;;;;;;;;;;4806697;29;20047;-89
2021/07/27 06:22:49;;;;;;;0.20;0.20;;;;;;;;;;4806469;29;20082;-93
2021/07/27 06:25:15;;;;;;;0.10;0.10;;;;;;;;;;4806834;29;20499;-88
2021/07/27 06:27:41;;;;;;;0.25;0.25;;;;;;;;;;4809537;29;20125;-89
2021/07/27 06:30:09;;;;;;;0.30;0.20;;;;;;;;;;4824837;29;20118;-89
2021/07/27 06:32:35;;;;;;;0.20;0.20;;;;;;;;;;4810289;29;20073;-89
2021/07/27 06:35:01;;;;;;;0.20;0.20;;;;;;;;;;4809636;29;20494;-88
2021/07/27 06:37:28;;;;;;;0.50;0.50;;;;;;;;;;4809179;29;20106;-88
2021/07/27 06:39:54;;;;;;;0.75;0.25;;;;;;;;;;4824900;29;20043;-91
2021/07/27 06:42:20;;;;;;;0.10;0.10;;;;;;;;;;4801863;29;20058;-87
2021/07/27 06:44:46;;;;;;;0.10;0.10;;;;;;;;;;4778178;29;20047;-89
2021/07/27 06:47:12;;;;;;;0.20;0.20;;;;;;;;;;4788012;29;20092;-88
2021/07/27 06:49:38;;;;;;;0.30;0.30;;;;;;;;;;4803726;29;20047;-89
2021/07/27 06:52:04;;;;;;;0.10;0.10;;;;;;;;;;4778883;29;20059;-89
2021/07/27 06:54:30;;;;;;;0.10;0.10;;;;;;;;;;4821236;29;20047;-89
2021/07/27 06:56:56;;;;;;;0.73;0.73;;;;;;;;;;4823796;29;20176;-89
2021/07/27 06:59:23;;;;;;;0.47;0.47;;;;;;;;;;4824395;29;20057;-89
2021/07/27 07:01:52;;;;;;;0.50;0.50;;;;;;;;;;4824747;29;20062;-91
2021/07/27 07:04:18;;;;;;;0.77;0.77;;;;;;;;;;4839661;29;20063;-89
2021/07/27 07:06:44;;;;;;;0.55;0.30;;;;;;;;;;4839569;29;20125;-90
2021/07/27 07:09:10;;;;;;;0.63;0.20;;;;;;;;;;4824399;29;20559;-89
2021/07/27 07:11:36;;;;;;;0.20;0.20;;;;;;;;;;4823878;29;20129;-89
2021/07/27 07:14:02;;;;;;;0.10;0.10;;;;;;;;;;4823869;29;20121;-90
2021/07/27 07:16:28;;;;;;;0.17;0.17;;;;;;;;;;4809160;29;20058;-91
2021/07/27 07:18:54;;;;;;;0.20;0.20;;;;;;;;;;4839375;29;20049;-91
2021/07/27 07:21:21;;;;;;;0.15;0.15;;;;;;;;;;4824125;29;20050;-89
2021/07/27 07:23:47;;;;;;;0.30;0.30;;;;;;;;;;4839540;29;20053;-90
2021/07/27 07:26:13;;;;;;;0.20;0.20;;;;;;;;;;4824055;29;20047;-90
2021/07/27 07:28:39;;;;;;;0.35;0.30;;;;;;;;;;4823974;29;20451;-90
2021/07/27 07:31:07;;;;;;;0.10;0.10;;;;;;;;;;4839339;29;20110;-89
2021/07/27 07:33:33;;;;;;;0.30;0.30;;;;;;;;;;4823890;29;20396;-89
2021/07/27 07:35:59;;;;;;;0.60;0.60;;;;;;;;;;4823978;29;20042;-89
2021/07/27 07:38:25;;;;;;;0.10;0.10;;;;;;;;;;4824878;29;20053;-92
2021/07/27 07:40:51;;;;;;;0.20;0.20;;;;;;;;;;4825664;29;20107;-94
2021/07/27 07:43:17;;;;;;;0.30;0.30;;;;;;;;;;4825769;29;20042;-92
2021/07/27 07:45:43;;;;;;;0.20;0.20;;;;;;;;;;4840982;29;20099;-94
2021/07/27 07:48:09;;;;;;;0.30;0.30;;;;;;;;;;4825758;29;20042;-95
2021/07/27 07:50:36;;;;;;;0.10;0.10;;;;;;;;;;4825253;29;20088;-94
2021/07/27 07:53:03;;;;;;;0.75;0.75;;;;;;;;;;4824524;29;20145;-94
2021/07/27 07:55:29;;;;;;;0.10;0.10;;;;;;;;;;4824861;29;20050;-94
2021/07/27 07:57:56;;;;;;;0.10;0.10;;;;;;;;;;4824859;29;20479;-94
2021/07/27 08:00:25;;;;;;;0.30;0.30;;;;;;;;;;4824317;29;20046;-91
2021/07/27 08:02:52;;;;;;;0.20;0.20;;;;;;;;;;4823984;29;20034;-91
2021/07/27 08:05:18;;;;;;;0.20;0.20;;;;;;;;;;4823960;29;20259;-92
2021/07/27 08:07:45;;;;;;;0.20;0.20;;;;;;;;;;4809042;29;20479;-92
2021/07/27 08:10:11;;;;;;;0.68;0.30;;;;;;;;;;4823825;29;20045;-92
2021/07/27 08:12:37;;;;;;;0.20;0.20;;;;;;;;;;4825291;29;20058;-92
2021/07/27 08:15:03;;;;;;;0.20;0.20;;;;;;;;;;4839187;29;20053;-94
2021/07/27 08:17:29;;;;;;;0.20;0.20;;;;;;;;;;4823960;29;20050;-94
2021/07/27 08:19:56;;;;;;;0.20;0.20;;;;;;;;;;4809407;29;20484;-93
2021/07/27 08:22:22;;;;;;;0.30;0.30;;;;;;;;;;4824627;29;20341;-94
2021/07/27 08:24:48;;;;;;;0.10;0.10;;;;;;;;;;4824175;29;20081;-92
2021/07/27 08:27:14;;;;;;;0.20;0.20;;;;;;;;;;4823988;29;20043;-93
2021/07/27 08:29:40;;;;;;;0.20;0.20;;;;;;;;;;4839036;29;20042;-93
2021/07/27 08:32:09;;;;;;;0.20;0.20;;;;;;;;;;4813744;29;20054;-93
2021/07/27 08:34:39;;;;;;;0.20;0.20;;;;;;;;;;4822408;29;20069;-92
2021/07/27 08:37:05;;;;;;;0.10;0.10;;;;;;;;;;4823687;29;20187;-95
2021/07/27 08:39:31;;;;;;;0.45;0.45;;;;;;;;;;4823525;29;20038;-92
2021/07/27 08:42:01;;;;;;;0.20;0.20;;;;;;;;;;4823676;29;20042;-92
2021/07/27 08:44:31;;;;;;;0.40;0.40;;;;;;;;;;4838495;29;20075;-91
2021/07/27 08:47:01;;;;;;;0.30;0.30;;;;;;;;;;4838326;29;20175;-92
2021/07/27 08:49:28;;;;;;;0.80;0.80;;;;;;;;;;4822616;29;20078;-92
2021/07/27 08:51:54;;;;;;;0.20;0.20;;;;;;;;;;4838110;29;20050;-92
2021/07/27 08:54:20;;;;;;;0.25;0.25;;;;;;;;;;4838206;29;20427;-91
2021/07/27 08:56:47;;;;;;;0.20;0.20;;;;;;;;;;4838147;29;20088;-89
2021/07/27 08:59:14;;;;;;;0.20;0.20;;;;;;;;;;4807467;29;20449;-91
2021/07/27 09:01:41;;;;;;;0.20;0.20;;;;;;;;;;4823004;29;20046;-91
2021/07/27 09:04:07;;;;;;;0.20;0.20;;;;;;;;;;4823066;29;20077;-90
2021/07/27 09:06:33;;;;;;;0.30;0.30;;;;;;;;;;4838029;29;20095;-91
2021/07/27 09:09:17;;;;;;;0.20;0.20;;;;;;;;;;4823296;29;20345;-91
2021/07/27 09:11:46;;;;;;;0.43;0.43;;;;;;;;;;4838003;29;20073;-91
2021/07/27 09:14:13;;;;;;;0.30;0.28;;;;;;;;;;4822861;29;20035;-92
2021/07/27 09:16:46;;;;;;;0.20;0.20;;;;;;;;;;4854096;24;20046;-91
2021/07/27 09:19:12;;;;;;;0.32;0.32;;;;;;;;;;4801572;29;20104;-92
2021/07/27 09:21:42;;;;;;;0.20;0.20;;;;;;;;;;4801569;29;20050;-91
2021/07/27 09:24:08;;;;;;;0.20;0.20;;;;;;;;;;4800815;29;20075;-90
2021/07/27 09:26:34;;;;;;;0.10;0.10;;;;;;;;;;4802567;29;20039;-90
2021/07/27 09:29:03;;;;;;;0.20;0.20;;;;;;;;;;4789579;29;20043;-91
2021/07/27 09:31:29;;;;;;;0.13;0.13;;;;;;;;;;4789548;29;20038;-91
2021/07/27 09:33:55;;;;;;;0.32;0.32;;;;;;;;;;4789466;29;20043;-90
2021/07/27 09:36:26;;;;;;;0.10;0.10;;;;;;;;;;4804494;29;20074;-92
2021/07/27 09:39:02;;;;;;;0.30;0.30;;;;;;;;;;4789462;29;20043;-90
2021/07/27 09:41:31;;;;;;;0.30;0.30;;;;;;;;;;4805731;29;20042;-95
2021/07/27 09:43:58;;;;;;;0.20;0.20;;;;;;;;;;4791672;29;20125;-89
2021/07/27 09:46:24;;;;;;;0.20;0.20;;;;;;;;;;4800966;29;20035;-91
2021/07/27 09:48:51;;;;;;;0.40;0.40;;;;;;;;;;4785917;29;20337;-89
2021/07/27 09:51:17;;;;;;;0.20;0.20;;;;;;;;;;4770689;30;20048;-90
2021/07/27 09:53:44;;;;;;;0.20;0.20;;;;;;;;;;4785859;30;20047;-90
2021/07/27 09:56:10;;;;;;;0.20;0.20;;;;;;;;;;4770801;30;20138;-90
2021/07/27 09:58:36;;;;;;;0.20;0.20;;;;;;;;;;4770763;30;20169;-89
2021/07/27 10:01:06;;;;;;;0.50;0.50;;;;;;;;;;4771501;30;20138;-89
2021/07/27 10:03:36;;;;;;;0.40;0.40;;;;;;;;;;4774484;30;20061;-89
2021/07/27 10:06:03;;;;;;;0.20;0.20;;;;;;;;;;4789256;29;20104;-91
2021/07/27 10:08:36;;;;;;;0.20;0.20;;;;;;;;;;4774697;30;20055;-92
2021/07/27 10:11:09;;;;;;;0.20;0.20;;;;;;;;;;4774840;30;20050;-91
2021/07/27 10:13:35;;;;;;;0.20;0.20;;;;;;;;;;4789381;29;20047;-92
2021/07/27 10:16:02;;;;;;;0.20;0.20;;;;;;;;;;4759922;30;20051;-93
2021/07/27 10:18:34;;;;;;;0.30;0.30;;;;;;;;;;4788464;29;20055;-91
2021/07/27 10:21:25;;;;;;;0.20;0.20;;;;;;;;;;4792515;29;20156;-90
2021/07/27 10:23:54;;;;;;;0.20;0.20;;;;;;;;;;4792466;29;20514;-92
2021/07/27 10:26:27;;;;;;;0.20;0.20;;;;;;;;;;4792243;29;20039;-91
2021/07/27 10:28:53;;;;;;;0.30;0.30;;;;;;;;;;4792097;29;20415;-91
2021/07/27 10:31:21;;;;;;;0.35;0.35;;;;;;;;;;4808216;29;20486;-93
2021/07/27 10:33:51;;;;;;;0.30;0.30;;;;;;;;;;4777228;29;20047;-90
2021/07/27 10:36:37;;;;;;;0.20;0.20;;;;;;;;;;4794993;29;20069;-93
2021/07/27 10:39:16;;;;;;;0.60;0.60;;;;;;;;;;4779376;29;20299;-93
2021/07/27 10:41:43;;;;;;;0.25;0.25;;;;;;;;;;4794373;29;20569;-94
2021/07/27 10:44:10;;;;;;;0.20;0.20;;;;;;;;;;4792798;29;20046;-94
2021/07/27 10:46:37;;;;;;;0.65;0.65;;;;;;;;;;4792106;29;20330;-89
2021/07/27 10:49:03;;;;;;;0.60;0.60;;;;;;;;;;4792159;29;20530;-89
2021/07/27 10:51:29;;;;;;;0.38;0.38;;;;;;;;;;4791752;29;20518;-90
2021/07/27 10:53:57;;;;;;;1.27;1.27;;;;;;;;;;4791731;29;20043;-90
2021/07/27 10:56:26;;;;;;;0.20;0.20;;;;;;;;;;4791551;29;20613;-90
2021/07/27 10:58:52;;;;;;;0.20;0.20;;;;;;;;;;4806526;29;20502;-89
2021/07/27 11:01:21;;;;;;;0.45;0.45;;;;;;;;;;4806425;29;20125;-91
2021/07/27 11:03:53;;;;;;;0.20;0.20;;;;;;;;;;4806521;29;20058;-89
2021/07/27 11:06:20;;;;;;;0.20;0.20;;;;;;;;;;4791007;29;20047;-90
2021/07/27 11:08:46;;;;;;;0.10;0.10;;;;;;;;;;4807301;29;20047;-91
2021/07/27 11:11:13;;;;;;;0.40;0.40;;;;;;;;;;4791272;29;20042;-90
2021/07/27 11:13:39;;;;;;;1.20;0.40;;;;;;;;;;4790837;29;20134;-89
2021/07/27 11:16:05;;;;;;;0.20;0.20;;;;;;;;;;4806021;29;20042;-90
2021/07/27 11:18:31;;;;;;;0.20;0.20;;;;;;;;;;4790922;29;20055;-89
2021/07/27 11:20:58;;;;;;;0.20;0.20;;;;;;;;;;4790935;29;20039;-89
2021/07/27 11:23:24;;;;;;;0.15;0.15;;;;;;;;;;4790906;29;20042;-90
2021/07/27 11:25:53;;;;;;;0.20;0.20;;;;;;;;;;4806037;29;20062;-89
2021/07/27 11:28:19;;;;;;;0.20;0.20;;;;;;;;;;4814773;29;20046;-90
2021/07/27 11:30:46;;;;;;;0.20;0.20;;;;;;;;;;4805716;29;20065;-90
2021/07/27 11:33:16;;;;;;;0.38;0.38;;;;;;;;;;4805437;29;20054;-89
2021/07/27 11:35:46;;;;;;;0.20;0.20;;;;;;;;;;4805822;29;20045;-90
2021/07/27 11:38:19;;;;;;;0.38;0.38;;;;;;;;;;4807802;29;20440;-91
2021/07/27 11:40:45;;;;;;;0.20;0.20;;;;;;;;;;4808906;29;20042;-90
2021/07/27 11:43:11;;;;;;;0.30;0.30;;;;;;;;;;4808827;29;20484;-89
2021/07/27 11:45:44;;;;;;;0.32;0.32;;;;;;;;;;4823687;29;20039;-90
2021/07/27 11:48:10;;;;;;;0.30;0.30;;;;;;;;;;4808465;29;20083;-90
2021/07/27 11:50:40;;;;;;;0.25;0.25;;;;;;;;;;4823685;29;20480;-89
2021/07/27 11:53:07;;;;;;;0.30;0.30;;;;;;;;;;4808494;29;20051;-89
2021/07/27 11:55:33;;;;;;;0.22;0.22;;;;;;;;;;4823692;29;20047;-89
2021/07/27 11:57:59;;;;;;;0.20;0.20;;;;;;;;;;4824801;29;20042;-91
2021/07/27 12:00:25;;;;;;;0.20;0.20;;;;;;;;;;4808139;29;20053;-90
2021/07/27 12:02:51;;;;;;;0.40;0.40;;;;;;;;;;4808583;29;20046;-91
2021/07/27 12:05:19;;;;;;;0.20;0.20;;;;;;;;;;4823465;29;20054;-90
2021/07/27 12:07:44;;;;;;;0.20;0.20;;;;;;;;;;4808121;29;20046;-90
2021/07/27 12:10:11;;;;;;;0.20;0.20;;;;;;;;;;4808159;29;20497;-90
2021/07/27 12:12:42;;;;;;;0.30;0.20;;;;;;;;;;4808431;29;20046;-91
2021/07/27 12:15:08;;;;;;;0.20;0.20;;;;;;;;;;4824563;29;20046;-92
2021/07/27 12:17:34;;;;;;;0.20;0.20;;;;;;;;;;4800382;29;20114;-91
2021/07/27 12:20:00;;;;;;;0.38;0.20;;;;;;;;;;4790235;29;20472;-88
2021/07/27 12:22:26;;;;;;;0.20;0.20;;;;;;;;;;4789912;29;20049;-88
2021/07/27 12:24:52;;;;;;;0.28;0.28;;;;;;;;;;4804453;29;20125;-91
2021/07/27 12:27:18;;;;;;;0.30;0.25;;;;;;;;;;4805330;29;20508;-91
2021/07/27 12:29:44;;;;;;;0.20;0.20;;;;;;;;;;4789969;29;20050;-89
2021/07/27 12:32:10;;;;;;;0.30;0.30;;;;;;;;;;4804844;29;20049;-91
2021/07/27 12:34:36;;;;;;;0.95;0.63;;;;;;;;;;4789322;29;20078;-90
2021/07/27 12:37:02;;;;;;;0.30;0.30;;;;;;;;;;4789912;29;20122;-91
2021/07/27 12:39:28;;;;;;;0.55;0.55;;;;;;;;;;4804811;29;20385;-94
2021/07/27 12:41:54;;;;;;;0.20;0.20;;;;;;;;;;4804473;29;20046;-90
2021/07/27 12:44:21;;;;;;;0.20;0.20;;;;;;;;;;4804161;29;20102;-89
2021/07/27 12:46:47;;;;;;;0.20;0.20;;;;;;;;;;4804267;29;20118;-89
2021/07/27 12:49:14;;;;;;;0.50;0.50;;;;;;;;;;4804437;29;20047;-89
2021/07/27 12:51:40;;;;;;;0.20;0.20;;;;;;;;;;4789069;29;20457;-88
2021/07/27 12:54:07;;;;;;;0.20;0.20;;;;;;;;;;4786291;29;20138;-87
2021/07/27 12:56:37;;;;;;;0.30;0.30;;;;;;;;;;4789224;29;20074;-89
2021/07/27 12:59:04;;;;;;;0.22;0.22;;;;;;;;;;4798262;29;20039;-90
2021/07/27 13:01:30;;;;;;;0.20;0.20;;;;;;;;;;4804386;29;20074;-89
2021/07/27 13:03:56;;;;;;;0.82;0.82;;;;;;;;;;4823082;29;20054;-90
2021/07/27 13:06:24;;;;;;;0.20;0.20;;;;;;;;;;4806614;29;20054;-90
2021/07/27 13:08:50;;;;;;;0.20;0.20;;;;;;;;;;4822370;29;20505;-89
2021/07/27 13:11:16;;;;;;;0.40;0.40;;;;;;;;;;4807275;29;20046;-90
2021/07/27 13:13:42;;;;;;;0.15;0.15;;;;;;;;;;4807130;29;20071;-89
2021/07/27 13:16:08;;;;;;;0.30;0.30;;;;;;;;;;4807123;29;20408;-89
2021/07/27 13:18:34;;;;;;;0.20;0.20;;;;;;;;;;4806679;29;20103;-89
2021/07/27 13:21:01;;;;;;;0.20;0.20;;;;;;;;;;4807098;29;20039;-90
2021/07/27 13:23:27;;;;;;;0.20;0.20;;;;;;;;;;4806765;29;20066;-89
2021/07/27 13:25:53;;;;;;;0.20;0.20;;;;;;;;;;4822390;29;20135;-91
2021/07/27 13:28:19;;;;;;;0.20;0.20;;;;;;;;;;4822472;29;20472;-91
2021/07/27 13:30:45;;;;;;;0.20;0.20;;;;;;;;;;4808276;29;20050;-91
2021/07/27 13:33:12;;;;;;;0.30;0.30;;;;;;;;;;4794087;29;20086;-95
2021/07/27 13:35:38;;;;;;;0.20;0.20;;;;;;;;;;4795753;29;20058;-92
2021/07/27 13:38:04;;;;;;;0.20;0.20;;;;;;;;;;4815778;29;20042;-92
2021/07/27 13:40:30;;;;;;;0.20;0.20;;;;;;;;;;4810477;29;20039;-91
2021/07/27 13:42:56;;;;;;;0.20;0.20;;;;;;;;;;4826348;29;20039;-92
2021/07/27 13:45:23;;;;;;;0.20;0.20;;;;;;;;;;4811352;29;20134;-91
2021/07/27 13:47:49;;;;;;;0.40;0.20;;;;;;;;;;4811494;29;20119;-92
2021/07/27 13:50:15;;;;;;;0.20;0.20;;;;;;;;;;4810822;29;20050;-90
2021/07/27 13:52:41;;;;;;;0.20;0.20;;;;;;;;;;4810746;29;20050;-93
2021/07/27 13:55:07;;;;;;;0.20;0.20;;;;;;;;;;4825470;29;20101;-91
2021/07/27 13:57:38;;;;;;;0.20;0.20;;;;;;;;;;4825954;29;20054;-90
2021/07/27 14:00:05;;;;;;;0.38;0.20;;;;;;;;;;4810693;29;20452;-90
2021/07/27 14:02:31;;;;;;;0.20;0.20;;;;;;;;;;4810626;29;20053;-91
2021/07/27 14:04:57;;;;;;;0.20;0.20;;;;;;;;;;4810553;29;20089;-92
2021/07/27 14:07:33;;;;;;;1.00;0.20;;;;;;;;;;4810754;29;20099;-88
2021/07/27 14:09:59;;;;;;;0.30;0.30;;;;;;;;;;4809921;29;20074;-88
2021/07/27 14:12:25;;;;;;;0.10;0.10;;;;;;;;;;4825145;29;20049;-87
2021/07/27 14:14:51;;;;;;;0.10;0.10;;;;;;;;;;4825025;29;20539;-91
2021/07/27 14:17:17;;;;;;;0.20;0.20;;;;;;;;;;4810263;29;20058;-90
2021/07/27 14:19:44;;;;;;;0.20;0.20;;;;;;;;;;4810485;29;20042;-91
2021/07/27 14:22:13;;;;;;;0.40;0.30;;;;;;;;;;4795406;29;20051;-91
2021/07/27 14:24:39;;;;;;;0.20;0.20;;;;;;;;;;4810554;29;20042;-91
2021/07/27 14:27:05;;;;;;;0.20;0.20;;;;;;;;;;4810263;29;20038;-92
2021/07/27 14:29:31;;;;;;;0.22;0.22;;;;;;;;;;4810687;29;20046;-90
2021/07/27 14:31:58;;;;;;;0.30;0.30;;;;;;;;;;4810418;29;20046;-92
2021/07/27 14:34:24;;;;;;;0.20;0.20;;;;;;;;;;4795209;29;20055;-91
2021/07/27 14:36:50;;;;;;;0.20;0.20;;;;;;;;;;4810426;29;20049;-91
2021/07/27 14:39:16;;;;;;;0.20;0.20;;;;;;;;;;4810274;29;20050;-91
2021/07/27 14:41:42;;;;;;;0.20;0.20;;;;;;;;;;4810343;29;20102;-92
2021/07/27 14:44:08;;;;;;;0.20;0.20;;;;;;;;;;4810423;29;20103;-94
2021/07/27 14:46:36;;;;;;;0.20;0.20;;;;;;;;;;4810156;29;20537;-93
2021/07/27 14:49:02;;;;;;;0.20;0.20;;;;;;;;;;4795738;29;20050;-93
2021/07/27 14:51:28;;;;;;;0.20;0.20;;;;;;;;;;4809657;29;20058;-93
2021/07/27 14:53:54;;;;;;;0.20;0.20;;;;;;;;;;4809811;29;20050;-93
2021/07/27 14:56:20;;;;;;;0.10;0.10;;;;;;;;;;4810139;29;20043;-91
2021/07/27 14:58:46;;;;;;;0.20;0.20;;;;;;;;;;4809964;29;20057;-93
2021/07/27 15:01:12;;;;;;;0.35;0.35;;;;;;;;;;4810467;29;20077;-94
2021/07/27 15:03:38;;;;;;;0.20;0.20;;;;;;;;;;4809973;29;20049;-93
2021/07/27 15:06:05;;;;;;;0.20;0.20;;;;;;;;;;4806622;29;20054;-94
2021/07/27 15:08:37;;;;;;;0.20;0.20;;;;;;;;;;4807891;29;20047;-94
2021/07/27 15:11:04;;;;;;;0.20;0.20;;;;;;;;;;4798423;29;20129;-95
2021/07/27 15:13:30;;;;;;;0.13;0.13;;;;;;;;;;4812002;29;20058;-94